Time;durP1;ratioP1;P1;durP2;ratioP2;P2;SDS_P1;SDS_P2;PMS_P1;PMS_P2;Temp;Humidity;BMP_temperature;BMP_pressure;BME280_temperature;BME280_humidity;BME280_pressure;Samples;Min_cycle;Max_cycle;Signal;HPM_P1;HPM_P2
2022/08/13 00:01:51;;;;;;;0.00;0.00;;;;;;;19.01;59.66;100696.31;4991320;28;20221;-71
2022/08/13 00:04:17;;;;;;;0.00;0.00;;;;;;;18.78;60.25;100689.06;4991090;28;20205;-70
2022/08/13 00:09:11;;;;;;;0.00;0.00;;;;;;;18.54;61.67;100692.84;4993849;28;20268;-70
2022/08/13 00:14:31;;;;;;;0.00;0.00;;;;;;;18.30;62.79;100693.81;4991277;28;20180;-70
2022/08/13 00:16:57;;;;;;;0.00;0.00;;;;;;;18.24;63.34;100696.06;4991535;28;20177;-71
2022/08/13 00:19:26;;;;;;;0.00;0.00;;;;;;;18.15;63.18;100692.66;4994702;28;20598;-71
2022/08/13 00:21:54;;;;;;;0.00;0.00;;;;;;;17.78;64.26;100692.88;4995036;28;20188;-71
2022/08/13 00:24:19;;;;;;;0.00;0.00;;;;;;;17.75;63.96;100690.03;4994820;28;20197;-71
2022/08/13 00:26:45;;;;;;;0.00;0.00;;;;;;;17.82;64.20;100693.00;4994475;28;20192;-71
2022/08/13 00:29:10;;;;;;;0.00;0.00;;;;;;;18.01;64.21;100695.06;4994488;28;20185;-71
2022/08/13 00:31:37;;;;;;;0.00;0.00;;;;;;;18.11;63.96;100684.28;4994884;28;20177;-71
2022/08/13 00:34:03;;;;;;;0.00;0.00;;;;;;;18.19;63.47;100698.28;4994793;28;20173;-71
2022/08/13 00:36:31;;;;;;;0.00;0.00;;;;;;;18.24;63.35;100681.44;4994724;28;20196;-71
2022/08/13 00:38:56;;;;;;;0.00;0.00;;;;;;;18.25;62.95;100683.03;4994053;28;20534;-71
2022/08/13 00:41:39;;;;;;;0.00;0.00;;;;;;;18.19;63.40;100682.47;4993576;28;20178;-71
2022/08/13 00:44:09;;;;;;;0.00;0.00;;;;;;;18.10;64.01;100682.69;4994142;28;20225;-71
2022/08/13 00:46:37;;;;;;;0.00;0.00;;;;;;;18.08;64.19;100687.78;4994192;28;20247;-73
2022/08/13 00:49:04;;;;;;;0.00;0.00;;;;;;;18.08;64.22;100681.41;4994190;28;20169;-71
2022/08/13 00:51:32;;;;;;;0.00;0.00;;;;;;;18.07;64.38;100682.56;4994510;28;20227;-72
2022/08/13 00:53:59;;;;;;;0.00;0.00;;;;;;;18.08;64.49;100692.47;4994268;28;20395;-71
2022/08/13 00:56:25;;;;;;;0.00;0.00;;;;;;;18.07;64.03;100686.13;4994594;28;20177;-71
2022/08/13 00:58:52;;;;;;;0.00;0.00;;;;;;;17.97;64.62;100683.13;4993738;28;20192;-71
2022/08/13 01:01:24;;;;;;;0.00;0.00;;;;;;;17.90;64.88;100678.19;4994290;28;20182;-71
2022/08/13 01:03:50;;;;;;;0.00;0.00;;;;;;;17.80;65.08;100673.19;4994016;28;20200;-71
2022/08/13 01:06:16;;;;;;;0.00;0.00;;;;;;;17.75;65.16;100681.72;4994053;28;20221;-71
2022/08/13 01:08:41;;;;;;;0.00;0.00;;;;;;;17.71;65.43;100672.56;4993471;28;20173;-71
2022/08/13 01:11:11;;;;;;;0.00;0.00;;;;;;;17.65;65.43;100680.28;4994013;28;20530;-71
2022/08/13 01:13:38;;;;;;;0.00;0.00;;;;;;;17.56;65.36;100676.84;4993747;28;20181;-71
2022/08/13 01:16:07;;;;;;;0.00;0.00;;;;;;;17.46;65.90;100671.81;4994129;28;20180;-71
2022/08/13 01:18:36;;;;;;;0.00;0.00;;;;;;;17.22;66.86;100670.78;4993160;28;20580;-71
2022/08/13 01:21:23;;;;;;;0.00;0.00;;;;;;;17.21;67.46;100671.09;4994031;28;20636;-71
2022/08/13 01:23:51;;;;;;;0.00;0.00;;;;;;;17.14;67.00;100662.63;4993839;28;20205;-71
2022/08/13 01:26:19;;;;;;;0.00;0.00;;;;;;;17.03;67.68;100665.06;4993985;28;20267;-71
2022/08/13 01:28:48;;;;;;;0.00;0.00;;;;;;;16.83;67.39;100664.09;4994065;28;20185;-71
2022/08/13 01:31:15;;;;;;;0.00;0.00;;;;;;;16.65;68.22;100673.75;4999150;28;20185;-71
2022/08/13 01:33:43;;;;;;;0.00;0.00;;;;;;;16.57;68.78;100674.69;4995530;28;20181;-71
2022/08/13 01:36:10;;;;;;;0.00;0.00;;;;;;;16.61;68.74;100673.63;4994144;28;20165;-71
2022/08/13 01:38:37;;;;;;;0.00;0.00;;;;;;;16.64;69.42;100670.19;4993590;28;20676;-71
2022/08/13 01:41:04;;;;;;;0.00;0.00;;;;;;;16.63;69.99;100671.31;4993472;28;20228;-71
2022/08/13 01:43:31;;;;;;;0.00;0.00;;;;;;;16.68;70.55;100675.84;4993773;28;20212;-71
2022/08/13 01:46:01;;;;;;;0.00;0.00;;;;;;;16.68;69.68;100672.28;4994102;28;20173;-71
2022/08/13 01:51:21;;;;;;;0.00;0.00;;;;;;;16.51;70.06;100678.84;4993354;28;20251;-71
2022/08/13 01:53:53;;;;;;;0.00;0.00;;;;;;;16.57;70.81;100682.94;4993046;28;20177;-71
2022/08/13 01:56:23;;;;;;;0.00;0.00;;;;;;;16.61;70.84;100672.81;4993292;28;20185;-71
2022/08/13 01:58:51;;;;;;;0.00;0.00;;;;;;;16.64;70.73;100672.16;4992815;28;20830;-71
2022/08/13 02:01:17;;;;;;;0.00;0.00;;;;;;;16.63;70.48;100671.31;4993146;28;20177;-71
2022/08/13 02:03:49;;;;;;;0.00;0.00;;;;;;;16.62;70.38;100677.19;4992856;28;20209;-71
2022/08/13 02:06:20;;;;;;;0.00;0.00;;;;;;;16.49;70.45;100679.19;4993327;28;20592;-71
2022/08/13 02:08:50;;;;;;;0.00;0.00;;;;;;;16.46;70.79;100679.03;4992524;28;20231;-71
2022/08/13 02:11:16;;;;;;;0.00;0.00;;;;;;;16.11;71.78;100678.69;4992930;28;20177;-72
2022/08/13 02:13:42;;;;;;;0.00;0.00;;;;;;;16.22;71.57;100679.84;4992589;28;20169;-71
2022/08/13 02:16:07;;;;;;;0.00;0.00;;;;;;;16.36;71.63;100685.84;4993216;28;20527;-72
2022/08/13 02:18:33;;;;;;;0.00;0.00;;;;;;;16.41;71.57;100680.09;4991858;28;20170;-71
2022/08/13 02:21:01;;;;;;;0.00;0.00;;;;;;;16.45;72.13;100682.94;4992711;28;20657;-72
2022/08/13 02:23:31;;;;;;;0.17;0.17;;;;;;;16.39;71.94;100687.09;4992507;28;20554;-71
2022/08/13 02:25:57;;;;;;;0.00;0.00;;;;;;;16.29;71.90;100685.59;4992486;28;20181;-71
2022/08/13 02:28:23;;;;;;;0.00;0.00;;;;;;;16.29;72.73;100693.88;4991847;28;20633;-71
2022/08/13 02:30:56;;;;;;;0.00;0.00;;;;;;;16.24;72.51;100689.38;4992436;28;20205;-71
2022/08/13 02:33:22;;;;;;;0.00;0.00;;;;;;;15.94;72.22;100690.72;4992655;28;20177;-71
2022/08/13 02:35:47;;;;;;;0.00;0.00;;;;;;;15.94;72.79;100699.00;4992404;28;20181;-71
2022/08/13 02:38:13;;;;;;;0.00;0.00;;;;;;;16.17;72.77;100699.38;4991603;28;20568;-72
2022/08/13 02:43:24;;;;;;;0.00;0.00;;;;;;;15.76;72.98;100695.59;4992446;28;20231;-71
2022/08/13 02:45:52;;;;;;;0.00;0.00;;;;;;;15.99;73.15;100679.47;4992350;28;20185;-71
2022/08/13 02:48:17;;;;;;;0.20;0.20;;;;;;;15.82;73.40;100677.72;4991744;28;20772;-71
2022/08/13 02:50:43;;;;;;;0.00;0.00;;;;;;;15.62;74.00;100682.16;4992445;28;20252;-71
2022/08/13 02:53:09;;;;;;;0.00;0.00;;;;;;;15.47;74.22;100677.22;4992664;28;20169;-71
2022/08/13 02:55:36;;;;;;;0.00;0.00;;;;;;;15.63;73.89;100663.69;4992336;28;20177;-71
2022/08/13 02:58:03;;;;;;;0.00;0.00;;;;;;;15.66;73.96;100669.31;4992709;28;20177;-71
2022/08/13 03:00:30;;;;;;;0.00;0.00;;;;;;;15.78;74.07;100674.03;4992091;28;20648;-71
2022/08/13 03:02:57;;;;;;;0.00;0.00;;;;;;;15.81;74.06;100661.53;4990887;28;20407;-71
2022/08/13 03:05:22;;;;;;;0.00;0.00;;;;;;;15.86;73.68;100670.38;4992214;28;20181;-72
2022/08/13 03:07:48;;;;;;;0.00;0.00;;;;;;;15.81;73.89;100667.03;4991945;28;20204;-71
2022/08/13 03:10:17;;;;;;;0.00;0.00;;;;;;;15.85;74.14;100673.47;4991954;28;20169;-71
2022/08/13 03:12:47;;;;;;;0.00;0.00;;;;;;;15.77;73.89;100672.44;4998552;28;20218;-71
2022/08/13 03:15:14;;;;;;;0.00;0.00;;;;;;;15.61;74.36;100666.75;5011488;28;20176;-71
2022/08/13 03:17:40;;;;;;;2.20;2.10;;;;;;;15.59;74.62;100666.28;4996658;28;20191;-72
2022/08/13 03:20:09;;;;;;;0.00;0.00;;;;;;;15.60;75.12;100672.59;4991407;28;20656;-71
2022/08/13 03:22:52;;;;;;;0.40;0.40;;;;;;;15.52;75.12;100670.72;4991800;28;20260;-71
2022/08/13 03:25:19;;;;;;;0.00;0.00;;;;;;;15.58;75.16;100678.41;4991759;28;20212;-71
2022/08/13 03:27:45;;;;;;;0.60;0.47;;;;;;;15.63;75.68;100666.44;4990017;28;20279;-71
2022/08/13 03:30:12;;;;;;;0.37;0.37;;;;;;;15.53;75.51;100664.88;4991075;28;20550;-71
2022/08/13 03:32:40;;;;;;;0.00;0.00;;;;;;;15.55;75.87;100673.59;4991712;28;20200;-71
2022/08/13 03:35:07;;;;;;;0.00;0.00;;;;;;;15.53;75.97;100670.38;4991546;28;20767;-71
2022/08/13 03:37:35;;;;;;;0.00;0.00;;;;;;;15.47;75.99;100675.28;4989991;28;20244;-71
2022/08/13 03:40:01;;;;;;;0.00;0.00;;;;;;;15.37;76.73;100669.41;4991536;28;20169;-71
2022/08/13 03:42:27;;;;;;;0.00;0.00;;;;;;;15.34;77.03;100673.63;4991516;28;20180;-71
2022/08/13 03:44:54;;;;;;;0.10;0.10;;;;;;;15.38;77.21;100673.75;4991241;28;20654;-71
2022/08/13 03:47:19;;;;;;;0.00;0.00;;;;;;;15.39;77.24;100665.16;4991516;28;20181;-71
2022/08/13 03:49:46;;;;;;;0.10;0.10;;;;;;;15.32;77.65;100662.13;4991021;28;20181;-71
2022/08/13 03:52:13;;;;;;;0.03;0.03;;;;;;;15.27;77.97;100653.28;4991291;28;20193;-72
2022/08/13 03:54:39;;;;;;;0.00;0.00;;;;;;;15.31;78.45;100665.22;4991264;28;20181;-71
2022/08/13 03:57:04;;;;;;;0.00;0.00;;;;;;;15.40;79.11;100669.53;4991130;28;20173;-71
2022/08/13 03:59:31;;;;;;;0.00;0.00;;;;;;;15.43;78.30;100668.84;4991188;28;20177;-71
2022/08/13 04:01:59;;;;;;;0.00;0.00;;;;;;;15.50;78.85;100662.00;4991241;28;20248;-72
2022/08/13 04:04:25;;;;;;;0.00;0.00;;;;;;;15.47;77.98;100656.00;4991406;28;20412;-72
2022/08/13 04:06:52;;;;;;;0.00;0.00;;;;;;;15.53;78.66;100659.34;4991043;28;20236;-72
2022/08/13 04:09:17;;;;;;;0.00;0.00;;;;;;;15.60;78.74;100661.56;4990831;28;20172;-72
2022/08/13 04:11:43;;;;;;;0.00;0.00;;;;;;;15.65;78.51;100661.38;4991309;28;20173;-72
2022/08/13 04:14:08;;;;;;;0.00;0.00;;;;;;;15.52;78.13;100666.00;4991139;28;20169;-71
2022/08/13 04:16:34;;;;;;;0.00;0.00;;;;;;;15.66;77.77;100666.56;4991219;28;20212;-71
2022/08/13 04:19:02;;;;;;;0.10;0.10;;;;;;;15.71;77.21;100660.81;4990771;28;20173;-71
2022/08/13 04:21:31;;;;;;;0.00;0.00;;;;;;;15.63;76.61;100669.19;4991137;28;20178;-71
2022/08/13 04:23:57;;;;;;;0.00;0.00;;;;;;;15.58;75.99;100659.13;4990967;28;20193;-71
2022/08/13 04:26:24;;;;;;;0.00;0.00;;;;;;;15.55;76.47;100662.56;4991131;28;20166;-71
2022/08/13 04:28:51;;;;;;;0.00;0.00;;;;;;;15.53;75.92;100664.88;4990464;28;20238;-71
2022/08/13 04:31:16;;;;;;;0.00;0.00;;;;;;;15.53;76.13;100673.13;4991050;28;20169;-71
2022/08/13 04:33:42;;;;;;;0.00;0.00;;;;;;;15.49;76.03;100663.94;4991106;28;20196;-72
2022/08/13 04:36:08;;;;;;;0.00;0.00;;;;;;;15.50;76.77;100675.75;4991086;28;20176;-72
2022/08/13 04:38:34;;;;;;;0.00;0.00;;;;;;;15.51;76.74;100669.91;4989060;28;20380;-72
2022/08/13 04:41:01;;;;;;;0.00;0.00;;;;;;;15.61;76.62;100669.50;4991132;28;20169;-72
2022/08/13 04:43:27;;;;;;;0.00;0.00;;;;;;;15.67;76.56;100668.16;4990883;28;20204;-72
2022/08/13 04:45:52;;;;;;;0.00;0.00;;;;;;;15.69;76.42;100665.84;4990942;28;20178;-72
2022/08/13 04:48:18;;;;;;;0.00;0.00;;;;;;;15.69;76.66;100676.06;4990281;28;20170;-72
2022/08/13 04:50:45;;;;;;;0.00;0.00;;;;;;;15.70;76.47;100678.50;4990924;28;20546;-72
2022/08/13 04:53:32;;;;;;;0.00;0.00;;;;;;;15.74;76.24;100673.91;4991501;28;20185;-72
2022/08/13 04:55:59;;;;;;;0.00;0.00;;;;;;;15.76;76.09;100684.56;4990883;28;20162;-71
2022/08/13 04:58:32;;;;;;;0.00;0.00;;;;;;;15.81;75.59;100683.56;4990363;28;20178;-71
2022/08/13 05:01:03;;;;;;;0.00;0.00;;;;;;;15.77;74.88;100677.94;4990827;28;20166;-71
2022/08/13 05:03:29;;;;;;;0.00;0.00;;;;;;;15.86;75.74;100683.34;4992496;28;20197;-72
2022/08/13 05:05:55;;;;;;;0.00;0.00;;;;;;;15.88;75.20;100678.28;4994360;28;20169;-71
2022/08/13 05:08:20;;;;;;;0.00;0.00;;;;;;;15.86;74.12;100683.34;4993775;28;20170;-72
2022/08/13 05:10:48;;;;;;;0.00;0.00;;;;;;;15.95;74.84;100679.34;4994341;28;20200;-74
2022/08/13 05:13:21;;;;;;;0.00;0.00;;;;;;;16.09;74.95;100689.25;4994215;28;20177;-74
2022/08/13 05:15:46;;;;;;;0.00;0.00;;;;;;;16.24;73.95;100685.81;5025547;28;20174;-74
2022/08/13 05:18:12;;;;;;;0.00;0.00;;;;;;;16.34;73.36;100696.38;4993607;28;20227;-73
2022/08/13 05:20:39;;;;;;;0.10;0.10;;;;;;;16.38;73.91;100688.25;4994143;28;20523;-73
2022/08/13 05:23:15;;;;;;;0.00;0.00;;;;;;;16.33;74.11;100694.78;4993914;28;20176;-73
2022/08/13 05:25:41;;;;;;;0.00;0.00;;;;;;;16.33;75.12;100689.25;4992608;28;20574;-73
2022/08/13 05:28:08;;;;;;;0.07;0.07;;;;;;;16.32;75.29;100693.97;4993560;28;20723;-73
2022/08/13 05:30:38;;;;;;;0.40;0.40;;;;;;;16.35;74.77;100689.75;4993609;28;20248;-74
2022/08/13 05:33:13;;;;;;;0.00;0.00;;;;;;;16.34;75.17;100688.13;4993908;28;20607;-73
2022/08/13 05:35:39;;;;;;;0.00;0.00;;;;;;;16.41;74.95;100693.88;4993846;28;20201;-73
2022/08/13 05:38:05;;;;;;;0.00;0.00;;;;;;;16.52;72.66;100703.31;4992537;28;20228;-73
2022/08/13 05:40:32;;;;;;;0.00;0.00;;;;;;;16.66;71.20;100698.25;4993458;28;20209;-73
2022/08/13 05:42:59;;;;;;;0.00;0.00;;;;;;;16.82;69.87;100701.13;4993658;28;20610;-74
2022/08/13 05:45:25;;;;;;;0.00;0.00;;;;;;;16.95;69.48;100699.97;4993449;28;20571;-73
2022/08/13 05:47:51;;;;;;;0.00;0.00;;;;;;;17.08;69.87;100697.19;4993405;28;20169;-73
2022/08/13 05:50:16;;;;;;;0.00;0.00;;;;;;;17.12;70.58;100695.31;4993201;28;20769;-74
2022/08/13 05:52:42;;;;;;;0.07;0.07;;;;;;;17.12;71.38;100696.13;4993463;28;20184;-73
2022/08/13 05:55:09;;;;;;;0.00;0.00;;;;;;;17.20;71.01;100694.34;4993414;28;20177;-73
2022/08/13 05:57:34;;;;;;;0.00;0.00;;;;;;;17.32;69.75;100696.28;4993145;28;20547;-73
2022/08/13 06:05:28;;;;;;;0.00;0.00;;;;;;;17.66;68.47;100700.41;4993240;28;20220;-73
2022/08/13 06:07:56;;;;;;;0.00;0.00;;;;;;;17.88;68.92;100699.06;4993068;28;20189;-74
2022/08/13 06:10:23;;;;;;;0.00;0.00;;;;;;;18.08;67.51;100717.34;4992770;28;20181;-73
2022/08/13 06:12:49;;;;;;;0.00;0.00;;;;;;;18.33;66.06;100712.47;4993073;28;20179;-73
2022/08/13 06:15:14;;;;;;;0.00;0.00;;;;;;;18.34;66.20;100711.31;4992968;28;20190;-73
2022/08/13 06:17:41;;;;;;;0.00;0.00;;;;;;;18.43;64.96;100720.25;4992772;28;20545;-73
2022/08/13 06:20:07;;;;;;;0.00;0.00;;;;;;;18.48;64.23;100714.41;4992609;28;20177;-74
2022/08/13 06:22:33;;;;;;;0.10;0.10;;;;;;;18.52;64.05;100709.81;4992792;28;20436;-73
2022/08/13 06:25:02;;;;;;;0.00;0.00;;;;;;;18.56;64.00;100716.22;4992816;28;20277;-74
2022/08/13 06:27:28;;;;;;;0.00;0.00;;;;;;;18.65;64.61;100710.50;5007461;28;20556;-74
2022/08/13 06:29:57;;;;;;;0.00;0.00;;;;;;;18.69;64.65;100722.47;4992298;28;20288;-73
2022/08/13 06:32:23;;;;;;;0.00;0.00;;;;;;;18.75;63.84;100715.50;4992731;28;20181;-73
2022/08/13 06:34:50;;;;;;;0.00;0.00;;;;;;;18.78;63.74;100713.97;4992556;28;20169;-73
2022/08/13 06:37:16;;;;;;;0.00;0.00;;;;;;;18.90;63.99;100720.19;4991850;28;20633;-73
2022/08/13 06:39:43;;;;;;;0.00;0.00;;;;;;;19.09;64.12;100724.16;5004574;28;20212;-73
2022/08/13 06:42:09;;;;;;;0.00;0.00;;;;;;;19.25;64.06;100727.72;5011645;28;20172;-74
2022/08/13 06:44:34;;;;;;;0.00;0.00;;;;;;;19.36;63.74;100730.69;5011879;28;20254;-73
2022/08/13 06:47:02;;;;;;;0.00;0.00;;;;;;;19.30;62.45;100728.22;5012136;28;20181;-73
2022/08/13 06:49:27;;;;;;;0.00;0.00;;;;;;;19.40;62.64;100726.03;5011519;28;20645;-73
2022/08/13 06:51:53;;;;;;;0.00;0.00;;;;;;;19.44;63.29;100738.00;5011259;28;20243;-74
2022/08/13 06:54:18;;;;;;;0.00;0.00;;;;;;;19.46;63.63;100725.38;5010952;28;20188;-73
2022/08/13 06:56:44;;;;;;;0.00;0.00;;;;;;;19.55;62.71;100730.75;5011785;28;20327;-73
2022/08/13 06:59:12;;;;;;;0.00;0.00;;;;;;;19.59;61.91;100734.38;5011354;28;20182;-73
2022/08/13 07:01:37;;;;;;;0.00;0.00;;;;;;;19.66;62.16;100734.50;5011800;28;20173;-73
2022/08/13 07:04:03;;;;;;;0.00;0.00;;;;;;;19.74;61.85;100730.72;5011636;28;20204;-74
2022/08/13 07:06:29;;;;;;;0.00;0.00;;;;;;;20.03;60.93;100739.56;5011753;28;20672;-74
2022/08/13 07:08:59;;;;;;;0.00;0.00;;;;;;;20.14;60.96;100737.81;5011021;28;20224;-73
2022/08/13 07:11:29;;;;;;;0.00;0.00;;;;;;;20.15;60.41;100742.97;5012030;28;20170;-74
2022/08/13 07:14:00;;;;;;;0.00;0.00;;;;;;;20.14;60.14;100746.94;5011690;28;20469;-73
2022/08/13 07:16:30;;;;;;;0.00;0.00;;;;;;;20.27;60.54;100741.22;5011633;28;20184;-73
2022/08/13 07:18:57;;;;;;;0.00;0.00;;;;;;;20.28;60.95;100742.81;5010789;28;20174;-74
2022/08/13 07:21:24;;;;;;;0.00;0.00;;;;;;;20.31;59.39;100744.84;5011435;28;20174;-74
2022/08/13 07:23:51;;;;;;;0.50;0.50;;;;;;;20.33;59.74;100750.81;5011138;28;20202;-73
2022/08/13 07:26:18;;;;;;;0.00;0.00;;;;;;;20.49;60.33;100757.06;5010992;28;20175;-73
2022/08/13 07:28:50;;;;;;;0.00;0.00;;;;;;;20.70;60.16;100753.88;5010761;28;20184;-74
2022/08/13 07:31:19;;;;;;;0.00;0.00;;;;;;;20.93;60.37;100757.38;5011359;28;20173;-73
2022/08/13 07:33:49;;;;;;;0.00;0.00;;;;;;;21.02;60.75;100757.91;5011307;28;20361;-74
2022/08/13 07:36:15;;;;;;;0.00;0.00;;;;;;;20.91;59.29;100754.19;5011281;28;20409;-74
2022/08/13 07:38:44;;;;;;;0.27;0.20;;;;;;;21.10;59.44;100756.84;5009522;28;20565;-73
2022/08/13 07:41:11;;;;;;;0.00;0.00;;;;;;;21.10;59.80;100756.03;5011257;28;20170;-73
2022/08/13 07:43:39;;;;;;;0.00;0.00;;;;;;;21.20;59.62;100755.41;5011163;28;20579;-74
2022/08/13 07:46:15;;;;;;;0.00;0.00;;;;;;;21.42;59.06;100748.19;5011203;28;20182;-73
2022/08/13 07:48:42;;;;;;;0.00;0.00;;;;;;;21.47;58.48;100747.03;5010569;28;20162;-74
2022/08/13 07:51:15;;;;;;;0.63;0.63;;;;;;;21.66;57.76;100753.25;5008070;28;20207;-74
2022/08/13 07:53:41;;;;;;;0.00;0.00;;;;;;;21.63;57.71;100753.19;5004727;28;20688;-77
2022/08/13 07:56:07;;;;;;;0.10;0.10;;;;;;;21.73;57.18;100758.09;4999674;28;20279;-82
2022/08/13 07:58:34;;;;;;;0.00;0.00;;;;;;;22.03;57.24;100762.81;5009335;28;20652;-79
2022/08/13 08:01:02;;;;;;;0.00;0.00;;;;;;;22.09;55.88;100758.50;5007987;28;20190;-74
2022/08/13 08:03:39;;;;;;;0.60;0.27;;;;;;;22.18;55.45;100757.03;5000119;28;20207;-73
2022/08/13 08:06:05;;;;;;;0.60;0.23;;;;;;;22.36;54.84;100764.75;5004072;28;20275;-72
2022/08/13 08:08:33;;;;;;;0.00;0.00;;;;;;;22.28;54.51;100761.09;5012990;28;20172;-72
2022/08/13 08:11:01;;;;;;;0.00;0.00;;;;;;;22.56;55.53;100771.69;5021123;28;20168;-72
2022/08/13 08:13:28;;;;;;;0.00;0.00;;;;;;;22.61;54.72;100760.19;5003793;28;20543;-73
2022/08/13 08:15:55;;;;;;;0.00;0.00;;;;;;;22.76;54.45;100773.06;5018719;28;20180;-73
2022/08/13 08:18:20;;;;;;;1.50;1.50;;;;;;;22.64;54.10;100765.00;5006406;28;20553;-73
2022/08/13 08:20:46;;;;;;;0.60;0.57;;;;;;;22.88;55.36;100762.81;5005824;28;20263;-74
2022/08/13 08:23:11;;;;;;;0.00;0.00;;;;;;;23.09;54.19;100768.53;5010730;28;20180;-75
2022/08/13 08:25:39;;;;;;;0.20;0.20;;;;;;;23.34;54.01;100763.91;5010370;28;20185;-73
2022/08/13 08:28:04;;;;;;;0.30;0.30;;;;;;;23.36;53.84;100769.09;5010311;28;20637;-73
2022/08/13 08:30:30;;;;;;;0.00;0.00;;;;;;;23.44;53.46;100774.31;5010116;28;20188;-71
2022/08/13 08:32:56;;;;;;;0.33;0.33;;;;;;;23.65;52.89;100768.06;5010400;28;20185;-71
2022/08/13 08:35:23;;;;;;;2.73;0.13;;;;;;;23.67;53.78;100767.66;5010609;28;20196;-72
2022/08/13 08:43:35;;;;;;;0.00;0.00;;;;;;;24.10;53.18;100774.16;5012942;28;20220;-74
2022/08/13 08:46:03;;;;;;;0.00;0.00;;;;;;;24.16;52.31;100774.56;5006651;28;20184;-74
2022/08/13 08:48:30;;;;;;;0.00;0.00;;;;;;;24.35;52.07;100767.88;5013602;28;20516;-74
2022/08/13 08:50:56;;;;;;;0.10;0.10;;;;;;;24.44;52.63;100768.25;5014588;28;20196;-75
2022/08/13 08:53:23;;;;;;;0.67;0.37;;;;;;;24.55;52.11;100758.69;5014302;28;20250;-74
2022/08/13 08:55:50;;;;;;;0.13;0.13;;;;;;;24.56;51.48;100760.28;5014225;28;20200;-74
2022/08/13 08:58:18;;;;;;;0.80;0.80;;;;;;;24.71;50.94;100766.66;5013809;28;20179;-76
2022/08/13 09:00:45;;;;;;;0.20;0.20;;;;;;;24.83;50.72;100759.88;5014121;28;20183;-74
2022/08/13 09:03:17;;;;;;;0.00;0.00;;;;;;;24.88;50.48;100757.50;5013898;28;20272;-75
2022/08/13 09:05:45;;;;;;;0.00;0.00;;;;;;;24.88;51.01;100751.06;5013922;28;20580;-75
2022/08/13 09:08:13;;;;;;;0.00;0.00;;;;;;;24.94;51.11;100749.50;5013844;28;20186;-74
2022/08/13 09:10:39;;;;;;;7.87;1.00;;;;;;;25.11;51.09;100745.88;5013878;28;20503;-75
2022/08/13 09:13:05;;;;;;;0.30;0.30;;;;;;;25.23;50.91;100743.88;5014015;28;20169;-74
2022/08/13 09:15:36;;;;;;;1.17;1.17;;;;;;;25.47;50.07;100738.19;5012491;28;20172;-75
2022/08/13 09:18:02;;;;;;;0.00;0.00;;;;;;;25.46;49.82;100736.59;5013554;28;20211;-75
2022/08/13 09:20:30;;;;;;;0.17;0.17;;;;;;;25.51;49.67;100741.75;5013433;28;20545;-75
2022/08/13 09:23:06;;;;;;;0.00;0.00;;;;;;;25.81;49.92;100737.66;5013593;28;20643;-74
2022/08/13 09:25:31;;;;;;;0.00;0.00;;;;;;;26.04;48.89;100731.53;5013581;28;20199;-75
2022/08/13 09:27:58;;;;;;;0.00;0.00;;;;;;;26.05;48.96;100731.13;5012034;28;20196;-74
2022/08/13 09:30:23;;;;;;;0.20;0.07;;;;;;;26.01;48.65;100727.50;5013482;28;20177;-75
2022/08/13 09:32:52;;;;;;;0.43;0.43;;;;;;;26.15;49.36;100728.63;5013398;28;20183;-75
2022/08/13 09:35:18;;;;;;;0.00;0.00;;;;;;;26.18;49.10;100725.00;5013416;28;20173;-75
2022/08/13 09:37:44;;;;;;;0.17;0.17;;;;;;;26.24;48.51;100726.19;5013270;28;20251;-74
2022/08/13 09:40:14;;;;;;;0.10;0.10;;;;;;;26.16;48.26;100716.22;5013202;28;20173;-74
2022/08/13 09:42:50;;;;;;;0.67;0.67;;;;;;;26.30;49.19;100725.31;5011262;28;20596;-75
2022/08/13 09:45:17;;;;;;;0.00;0.00;;;;;;;26.42;48.72;100717.66;5012549;28;20258;-75
2022/08/13 09:47:43;;;;;;;0.07;0.07;;;;;;;26.56;48.59;100712.72;5013076;28;20169;-75
2022/08/13 09:50:09;;;;;;;1.00;0.47;;;;;;;26.70;49.05;100714.59;5012482;28;20161;-75
2022/08/13 09:52:36;;;;;;;0.03;0.03;;;;;;;26.83;48.03;100712.88;5013146;28;20166;-74
2022/08/13 09:55:01;;;;;;;0.10;0.10;;;;;;;26.81;47.82;100709.69;5013117;28;20661;-74
2022/08/13 09:57:28;;;;;;;0.00;0.00;;;;;;;26.86;47.83;100711.22;5012963;28;20176;-74
2022/08/13 09:59:53;;;;;;;0.00;0.00;;;;;;;26.96;48.04;100707.53;5012686;28;20170;-75
2022/08/13 10:02:19;;;;;;;0.10;0.10;;;;;;;26.93;47.83;100711.19;5012964;28;20173;-75
2022/08/13 10:04:44;;;;;;;0.00;0.00;;;;;;;27.14;48.38;100707.34;5013120;28;20234;-74
2022/08/13 10:07:12;;;;;;;0.73;0.73;;;;;;;27.26;48.61;100701.19;5012772;28;20271;-75
2022/08/13 10:09:38;;;;;;;0.67;0.67;;;;;;;27.34;48.09;100702.72;5012444;28;20208;-74
2022/08/13 10:12:05;;;;;;;0.40;0.30;;;;;;;27.25;47.30;100702.41;5012713;28;20637;-74
2022/08/13 10:14:31;;;;;;;0.10;0.10;;;;;;;27.16;48.21;100690.91;5012764;28;20184;-75
2022/08/13 10:16:57;;;;;;;0.37;0.37;;;;;;;27.26;48.11;100701.19;5012397;28;20208;-74
2022/08/13 10:19:24;;;;;;;0.90;0.90;;;;;;;27.29;48.17;100691.94;5012506;28;20211;-74
2022/08/13 10:21:49;;;;;;;0.60;0.60;;;;;;;27.02;48.15;100683.44;5009638;28;20748;-74
2022/08/13 10:24:15;;;;;;;0.57;0.57;;;;;;;27.06;48.04;100692.63;5012400;28;20309;-74
2022/08/13 10:26:40;;;;;;;0.30;0.30;;;;;;;26.89;48.23;100685.16;5011835;28;20196;-74
2022/08/13 10:29:10;;;;;;;0.37;0.37;;;;;;;27.20;48.42;100680.44;5011217;28;20548;-74
2022/08/13 10:31:36;;;;;;;0.57;0.53;;;;;;;27.26;48.11;100675.94;5011828;28;20194;-74
2022/08/13 10:34:03;;;;;;;0.70;0.60;;;;;;;27.00;47.81;100674.63;5026945;28;20582;-74
2022/08/13 10:36:30;;;;;;;1.20;1.17;;;;;;;27.23;47.24;100671.97;5011861;28;20665;-74
2022/08/13 10:38:56;;;;;;;0.97;0.87;;;;;;;27.27;46.85;100671.94;5011607;28;20230;-74
2022/08/13 10:41:22;;;;;;;3.90;1.03;;;;;;;27.35;46.83;100669.84;5011733;28;20182;-74
2022/08/13 10:43:49;;;;;;;0.13;0.13;;;;;;;27.67;46.55;100664.59;5011723;28;20198;-74
2022/08/13 10:46:20;;;;;;;0.67;0.40;;;;;;;27.70;45.90;100660.94;5008081;28;20183;-74
2022/08/13 10:48:50;;;;;;;0.67;0.60;;;;;;;27.71;46.02;100661.75;5004936;28;20257;-74
2022/08/13 10:51:15;;;;;;;0.17;0.17;;;;;;;27.91;45.13;100662.63;5012044;28;20270;-74
2022/08/13 10:53:56;;;;;;;0.43;0.43;;;;;;;27.78;44.68;100659.63;5011995;28;20258;-74
2022/08/13 10:56:22;;;;;;;0.57;0.57;;;;;;;27.71;45.14;100659.72;5023519;28;20185;-74
2022/08/13 10:58:51;;;;;;;0.53;0.37;;;;;;;27.71;44.94;100658.94;5031352;28;20175;-74
2022/08/13 11:01:20;;;;;;;0.13;0.13;;;;;;;27.70;44.62;100649.72;5031096;28;20330;-74
2022/08/13 11:03:45;;;;;;;0.00;0.00;;;;;;;27.97;44.47;100646.09;5028818;28;20914;-74
2022/08/13 11:06:11;;;;;;;0.77;0.77;;;;;;;28.34;44.60;100657.13;5012073;28;20261;-75
2022/08/13 11:08:37;;;;;;;0.43;0.43;;;;;;;28.52;43.52;100642.00;5011441;28;20266;-74
2022/08/13 11:11:07;;;;;;;0.17;0.17;;;;;;;28.72;43.58;100637.16;5011896;28;20264;-74
2022/08/13 11:13:37;;;;;;;0.10;0.10;;;;;;;28.68;43.56;100636.47;5011770;28;20179;-74
2022/08/13 11:16:56;;;;;;;0.00;0.00;;;;;;;28.59;42.89;100633.41;5012052;28;20230;-75
2022/08/13 11:18:54;;;;;;;0.23;0.23;;;;;;;28.54;43.30;100628.28;5011163;28;20270;-75
2022/08/13 11:21:19;;;;;;;0.20;0.20;;;;;;;28.74;43.79;100626.28;5011716;28;20730;-74
2022/08/13 11:23:45;;;;;;;0.40;0.40;;;;;;;28.70;42.55;100614.31;5011565;28;20197;-71
2022/08/13 11:26:10;;;;;;;0.10;0.10;;;;;;;28.71;42.21;100629.97;5011701;28;20198;-71
2022/08/13 11:28:36;;;;;;;0.67;0.40;;;;;;;28.90;41.97;100612.31;5010603;28;20219;-72
2022/08/13 11:31:01;;;;;;;0.00;0.00;;;;;;;28.78;42.48;100624.19;5010765;28;20173;-72
2022/08/13 11:33:26;;;;;;;0.43;0.43;;;;;;;28.85;42.25;100620.44;5010888;28;20183;-72
2022/08/13 11:35:52;;;;;;;0.50;0.50;;;;;;;28.77;43.27;100616.19;5011054;28;20184;-72
2022/08/13 11:38:20;;;;;;;0.20;0.20;;;;;;;28.77;43.37;100619.78;5007248;28;20213;-72
2022/08/13 11:40:51;;;;;;;0.10;0.10;;;;;;;28.88;43.02;100611.97;5008522;28;20392;-72
2022/08/13 11:43:16;;;;;;;0.07;0.07;;;;;;;29.02;43.53;100614.47;5010874;28;20644;-72
2022/08/13 11:45:42;;;;;;;0.10;0.10;;;;;;;28.90;43.03;100603.09;5010357;28;20207;-72
2022/08/13 11:48:08;;;;;;;0.30;0.30;;;;;;;28.64;43.22;100597.16;5011299;28;20219;-72